Dortmund, Germany

7:23 AM CEST on May 24, 2015 (GMT +0200)
Dortmund | | Change Station
CLOSE
Current Station
Airport
Location: Dortmund,
Elevation: 417 ft
Nearby Weather Stations

Elev 417 ft 51.52 °N, 7.61 °E | Updated 3 minutes ago

Overcast
Overcast
48 °F
Feels Like 48 °F
N
4
Wind Variable Wind from Variable

Today
High -- | Low -- °F
--% Chance of Precip.
Yesterday
High -- | Low -- °F
Precip. -- in
5:26 AM 9:27 PM
Waxing Crescent, 36% visible
Pressure 30.12 in
Visibility 6.2 miles
Clouds Overcast 2900 ft
Dew Point 39 °F
Humidity 71%
Rainfall 0.00 in
Snow Depth Not available.
UV 0 out of 12
Pollen Not available.
Air Quality Not available.
Flu Activity Not available.
METAR EDLW 240520Z VRB03KT 9999 OVC029 09/04 Q1020 RMK ATIS E

More Conditions Fewer Conditions

Pressure 30.12 in
Visibility 6.2 miles
Clouds Overcast 2900 ft
Dew Point 39 °F
Humidity 71%
Rainfall 0.00 in
Snow Depth Not available.
UV 0 out of 12
Pollen Not available.
Air Quality Not available.
Flu Activity Not available.
METAR EDLW 240520Z VRB03KT 9999 OVC029 09/04 Q1020 RMK ATIS E

More Conditions Fewer Conditions

10-Day Weather Forecast

Almanac

Astronomy

May. 24, 2015 Rise Set
Actual Time
Civil Twilight
Nautical Twilight
Astronomical Twilight
Moon
Length of Visible Light
Length of Day
Tomorrow will be .
, % of the Moon is Illuminated

Today's Extremes

Country Highs Country Lows

Community

WunderPhotos

Upload Photos

1,823,691 photos uploaded!

WunderBlogs® & News

Nearby

Air Quality

  Air Quality AQ Index Pollutant
Not available.

Snow Depth

Station Depth Elevation

Earthquake Activity

City Distance Mag. Time & Date
Minimum magnitude displayed is 2.5.

Coastal Water Temperatures

Place Temperature

Stations

Nearby Weather Stations

Station Location Temp. Windchill Dew Point Humidity Wind Precip. Elev Updated Type